Weather at Upland Hills Health Heliport

Public forecast

Using degrees Fahrenheit for public forecast. Weather courtesy of forecast.io.

Closest aviation weather report (METAR) to Upland Hills Health Heliport

Closest report is Iowa County Airport, 6.1 nm (11.4 km) SW. Retrieved 2021/06/23 01:55 UTC (12 minutes ago):

KMRJ 230155Z AUTO 12004KT 10SM BKN055 19/08 A2991 RMK AO2

Closest aviation forecast (TAF) to Upland Hills Health Heliport

Closest forecast is Dane County Regional Truax Field, 36.5 nm (67.6 km) ENE. Retrieved 2021-06-23 00:33 UTC (2 hours ago):

TAF KMSN 222330Z 2300/2324 VRB04KT P6SM BKN080 TEMPO 2300/2304 17005KT SCT080 FM230400 14005KT P6SM BKN080 FM230800 18007KT P6SM VCSH BKN045 FM231200 19008KT P6SM VCSH BKN025 FM231600 19012G20KT P6SM BKN050